Home

Weather

KSLC Current Conditions

KSLC 200554Z 13007KT 10SM CLR 23/02 A3003 RMK AO2 SLP113 T02280022 10306 20228 58005

KSLC Aviation Forecast

TAF KSLC 200536Z 2006/2112 16007KT P6SM SKC FM201700 18012G20KT P6SM FEW090 SCT140 FM202200 18015G25KT P6SM VCSH SCT090 BKN120 FM210300 20010KT P6SM SCT100 BKN140 FM210500 16008KT P6SM SCT140


Fire Weather Warning

Issued:
2:41 PM MDT on August 19, 2018
Expires:
10:00 PM MDT on August 20, 2018
73° F
Clear
Clear

Partly Cloudy
Sunday
Partly Cloudy
High 88°/Low 65°
0%
Chance of a Thunderstorm
Monday
Chance of a Thunderstorm
High 92°/Low 66°
40%
Chance of a Thunderstorm
Tuesday
Chance of a Thunderstorm
High 84°/Low 66°
40%
Clear
Wednesday
Clear
High 86°/Low 63°
20%
Clear
Thursday
Clear
High 87°/Low 64°
0%
Clear
Friday
Clear
High 90°/Low 66°
0%